createdAt,value
2019-06-01T00:00:12.356Z,11.73
2019-06-01T00:02:45.334Z,8.25
2019-06-01T00:05:14.749Z,9.53
2019-06-01T00:07:44.930Z,9.55
2019-06-01T00:10:14.878Z,9.30
2019-06-01T00:12:45.302Z,8.28
2019-06-01T00:15:15.647Z,7.45
2019-06-01T00:17:45.998Z,10.08
2019-06-01T00:20:15.767Z,8.33
2019-06-01T00:22:45.494Z,12.47
2019-06-01T00:25:15.044Z,10.10
2019-06-01T00:27:44.768Z,9.48
2019-06-01T00:30:26.531Z,7.03
2019-06-01T00:32:47.307Z,7.17
2019-06-01T00:35:18.091Z,7.25
2019-06-01T00:37:47.670Z,9.13
2019-06-01T00:40:17.686Z,8.63
2019-06-01T00:42:48.296Z,11.28
2019-06-01T00:45:17.880Z,10.50
2019-06-01T00:47:47.330Z,10.00
2019-06-01T00:50:17.018Z,6.00
2019-06-01T00:52:47.191Z,6.80
2019-06-01T00:55:18.852Z,11.97
2019-06-01T00:57:49.704Z,8.90
2019-06-01T01:00:20.191Z,9.25
2019-06-01T01:02:50.298Z,8.03
2019-06-01T01:05:21.636Z,7.40
2019-06-01T01:07:51.763Z,9.00
2019-06-01T01:10:23.354Z,9.00
2019-06-01T01:13:06.388Z,7.72
2019-06-01T01:15:36.639Z,7.17
2019-06-01T01:18:08.322Z,7.10
2019-06-01T01:20:38.610Z,7.47
2019-06-01T01:23:08.898Z,10.40
2019-06-01T01:25:38.423Z,9.85
2019-06-01T01:28:07.982Z,8.65
2019-06-01T01:30:37.514Z,10.23
2019-06-01T01:33:06.963Z,7.55
2019-06-01T01:35:36.563Z,6.40
2019-06-01T01:38:06.092Z,8.18
2019-06-01T01:40:35.536Z,8.60
2019-06-01T01:43:05.077Z,7.08
2019-06-01T01:45:34.588Z,7.33
2019-06-01T01:48:04.096Z,6.58
2019-06-01T01:50:33.548Z,7.12
2019-06-01T01:53:03.367Z,7.30
2019-06-01T01:55:33.503Z,5.05
2019-06-01T01:58:03.046Z,7.50
2019-06-01T02:00:38.799Z,14.28
2019-06-01T02:03:09.295Z,8.93
2019-06-01T02:05:38.882Z,6.15
2019-06-01T02:08:09.124Z,6.65
2019-06-01T02:10:38.636Z,8.10
2019-06-01T02:13:09.367Z,8.53
2019-06-01T02:15:41.663Z,6.10
2019-06-01T02:20:41.442Z,9.13
2019-06-01T02:23:10.974Z,7.97
2019-06-01T02:25:40.487Z,5.62
2019-06-01T02:28:09.952Z,7.45
2019-06-01T02:30:39.439Z,7.97
2019-06-01T02:33:08.884Z,7.45
2019-06-01T02:35:38.346Z,6.20
2019-06-01T02:38:07.797Z,6.22
2019-06-01T02:40:38.934Z,6.75
2019-06-01T02:43:08.406Z,7.75
2019-06-01T02:45:37.989Z,8.55
2019-06-01T02:48:07.563Z,9.48
2019-06-01T02:50:37.232Z,10.40
2019-06-01T02:53:07.073Z,6.40
2019-06-01T02:55:36.514Z,7.78
2019-06-01T02:58:06.702Z,9.73
2019-06-01T03:00:49.636Z,11.88
2019-06-01T03:03:19.170Z,5.12
2019-06-01T03:05:50.058Z,6.05
2019-06-01T03:08:20.542Z,5.75
2019-06-01T03:10:52.630Z,7.62
2019-06-01T03:13:25.061Z,9.28
2019-06-01T03:15:58.163Z,8.90
2019-06-01T03:18:30.938Z,9.00
2019-06-01T03:21:04.693Z,7.25
2019-06-01T03:23:35.443Z,8.53
2019-06-01T03:26:08.699Z,6.90
2019-06-01T03:28:43.623Z,8.63
2019-06-01T03:31:13.398Z,9.30
2019-06-01T03:33:43.023Z,13.53
2019-06-01T03:36:13.149Z,12.50
2019-06-01T03:38:42.918Z,20.85
2019-06-01T03:41:12.441Z,16.80
2019-06-01T03:43:41.886Z,13.93
2019-06-01T03:46:11.363Z,13.05
2019-06-01T03:48:40.835Z,12.23
2019-06-01T03:51:10.282Z,15.23
2019-06-01T03:53:39.751Z,18.32
2019-06-01T03:56:09.211Z,14.18
2019-06-01T03:58:38.670Z,12.28
2019-06-01T04:01:09.146Z,14.38
2019-06-01T04:03:38.910Z,12.80
2019-06-01T04:06:09.440Z,12.45
2019-06-01T04:08:39.126Z,10.15
2019-06-01T04:11:09.676Z,11.15
2019-06-01T04:13:39.531Z,13.43
2019-06-01T04:16:10.025Z,11.93
2019-06-01T04:18:39.655Z,10.93
2019-06-01T04:21:10.268Z,14.65
2019-06-01T04:23:40.108Z,11.70
2019-06-01T04:26:10.293Z,10.58
2019-06-01T04:28:40.039Z,11.25
2019-06-01T04:31:10.868Z,9.20
2019-06-01T04:33:40.450Z,11.45
2019-06-01T04:36:10.921Z,10.13
2019-06-01T04:38:40.563Z,12.20
2019-06-01T04:41:10.007Z,8.25
2019-06-01T04:43:39.459Z,10.25
2019-06-01T04:46:10.236Z,7.80
2019-06-01T04:48:40.073Z,9.08
2019-06-01T04:51:11.404Z,7.12
2019-06-01T04:53:40.614Z,10.93
2019-06-01T04:56:11.130Z,11.57
2019-06-01T04:58:40.631Z,8.95
2019-06-01T05:01:10.925Z,8.38
2019-06-01T05:03:40.422Z,9.83
2019-06-01T05:06:11.240Z,18.17
2019-06-01T05:08:40.933Z,10.90
2019-06-01T05:11:11.734Z,17.15
2019-06-01T05:13:41.396Z,11.75
2019-06-01T05:16:12.945Z,10.93
2019-06-01T05:18:41.928Z,11.88
2019-06-01T05:21:12.624Z,11.03
2019-06-01T05:23:42.543Z,9.95
2019-06-01T05:26:13.145Z,10.32
2019-06-01T05:28:42.779Z,13.53
2019-06-01T05:31:14.939Z,13.95
2019-06-01T05:33:43.426Z,16.20
2019-06-01T05:36:14.151Z,17.82
2019-06-01T05:38:43.838Z,13.65
2019-06-01T05:41:14.847Z,11.68
2019-06-01T05:43:44.358Z,10.38
2019-06-01T05:46:14.057Z,10.10
2019-06-01T05:48:43.587Z,7.12
2019-06-01T05:51:15.546Z,8.15
2019-06-01T05:53:44.127Z,10.95
2019-06-01T05:56:14.742Z,9.75
2019-06-01T05:58:44.381Z,8.35
2019-06-01T06:01:14.709Z,9.80
2019-06-01T06:03:44.256Z,8.05
2019-06-01T06:06:15.807Z,8.63
2019-06-01T06:08:45.323Z,8.78
2019-06-01T06:11:14.952Z,9.43
2019-06-01T06:13:44.538Z,9.75
2019-06-01T06:16:14.056Z,9.30
2019-06-01T06:18:43.515Z,10.50
2019-06-01T06:21:13.943Z,10.70
2019-06-01T06:23:43.506Z,12.15
2019-06-01T06:26:15.209Z,9.00
2019-06-01T06:28:44.039Z,10.03
2019-06-01T06:31:13.539Z,11.00
2019-06-01T06:33:55.464Z,10.63
2019-06-01T06:36:14.137Z,12.13
2019-06-01T06:38:43.586Z,12.75
2019-06-01T06:41:13.956Z,12.35
2019-06-01T06:43:44.564Z,11.83
2019-06-01T06:46:14.549Z,13.22
2019-06-01T06:48:44.447Z,15.68
2019-06-01T06:51:15.078Z,12.20
2019-06-01T06:53:44.754Z,12.50
2019-06-01T06:56:14.190Z,13.00
2019-06-01T06:58:43.632Z,11.97
2019-06-01T07:01:13.108Z,11.80
2019-06-01T07:03:42.560Z,12.75
2019-06-01T07:06:12.041Z,13.72
2019-06-01T07:08:41.475Z,12.75
2019-06-01T07:11:12.047Z,15.18
2019-06-01T07:13:41.867Z,20.90
2019-06-01T07:16:11.297Z,14.87
2019-06-01T07:18:40.760Z,12.60
2019-06-01T07:21:10.205Z,14.63
2019-06-01T07:23:40.011Z,13.88
2019-06-01T07:26:09.502Z,11.93
2019-06-01T07:28:39.908Z,13.18
2019-06-01T07:31:09.362Z,14.20
2019-06-01T07:33:38.807Z,15.00
2019-06-01T07:36:08.283Z,9.30
2019-06-01T07:38:38.988Z,10.60
2019-06-01T07:41:08.439Z,12.25
2019-06-01T07:43:37.967Z,14.93
2019-06-01T07:46:07.435Z,9.78
2019-06-01T07:48:36.899Z,9.63
2019-06-01T07:51:06.386Z,8.40
2019-06-01T07:53:35.847Z,10.32
2019-06-01T07:56:05.298Z,12.03
2019-06-01T07:58:34.825Z,21.52
2019-06-01T08:01:04.535Z,10.43
2019-06-01T08:03:35.231Z,11.35
2019-06-01T08:06:04.959Z,10.05
2019-06-01T08:08:34.413Z,10.38
2019-06-01T08:11:03.867Z,8.28
2019-06-01T08:13:35.738Z,10.20
2019-06-01T08:16:04.534Z,9.53
2019-06-01T08:18:33.982Z,10.93
2019-06-01T08:21:03.426Z,8.70
2019-06-01T08:23:32.898Z,11.12
2019-06-01T08:26:02.336Z,7.83
2019-06-01T08:28:32.759Z,7.87
2019-06-01T08:31:02.465Z,6.92
2019-06-01T08:33:33.569Z,10.08
2019-06-01T08:36:02.987Z,7.97
2019-06-01T08:38:33.678Z,6.72
2019-06-01T08:41:03.296Z,6.72
2019-06-01T08:43:33.906Z,5.37
2019-06-01T08:46:03.871Z,7.45
2019-06-01T08:48:34.082Z,5.85
2019-06-01T08:51:03.667Z,5.83
2019-06-01T08:53:34.187Z,6.70
2019-06-01T08:56:03.853Z,7.00
2019-06-01T08:58:34.710Z,7.45
2019-06-01T09:01:05.040Z,8.65
2019-06-01T09:03:39.906Z,6.62
2019-06-01T09:06:05.663Z,6.05
2019-06-01T09:08:35.194Z,6.80
2019-06-01T09:11:05.827Z,8.00
2019-06-01T09:13:35.560Z,5.17
2019-06-01T09:16:05.971Z,7.70
2019-06-01T09:18:35.842Z,4.42
2019-06-01T09:21:05.722Z,4.90
2019-06-01T09:23:37.116Z,6.53
2019-06-01T09:26:06.364Z,5.55
2019-06-01T09:28:36.225Z,5.30
2019-06-01T09:31:05.961Z,8.65
2019-06-01T09:33:36.868Z,8.85
2019-06-01T09:36:06.732Z,11.57
2019-06-01T09:38:36.191Z,6.42
2019-06-01T09:41:05.707Z,6.37
2019-06-01T09:43:35.170Z,7.45
2019-06-01T09:46:04.881Z,7.45
2019-06-01T09:48:35.553Z,8.58
2019-06-01T09:51:05.383Z,5.95
2019-06-01T09:53:35.983Z,6.25
2019-06-01T09:56:05.932Z,5.35
2019-06-01T09:58:36.766Z,9.40
2019-06-01T10:01:06.699Z,7.17
2019-06-01T10:03:36.538Z,7.50
2019-06-01T10:06:06.847Z,5.72
2019-06-01T10:08:36.438Z,7.70
2019-06-01T10:11:05.871Z,6.95
2019-06-01T10:13:36.363Z,6.60
2019-06-01T10:16:05.982Z,6.78
2019-06-01T10:18:36.949Z,8.28
2019-06-01T10:21:06.770Z,5.42
2019-06-01T10:23:36.648Z,6.15
2019-06-01T10:26:06.270Z,10.38
2019-06-01T10:28:35.828Z,8.85
2019-06-01T10:31:06.563Z,5.37
2019-06-01T10:33:37.384Z,6.15
2019-06-01T10:36:19.922Z,6.72
2019-06-01T10:38:39.364Z,4.95
2019-06-01T10:41:09.151Z,6.25
2019-06-01T10:43:39.742Z,4.92
2019-06-01T10:46:09.363Z,9.18
2019-06-01T10:48:40.025Z,5.20
2019-06-01T10:51:09.827Z,4.70
2019-06-01T10:53:41.176Z,6.12
2019-06-01T10:56:10.550Z,4.28
2019-06-01T10:58:56.695Z,5.12
2019-06-01T11:01:11.080Z,7.70
2019-06-01T11:03:40.774Z,4.90
2019-06-01T11:06:10.471Z,3.95
2019-06-01T11:08:41.068Z,5.33
2019-06-01T11:11:10.574Z,4.20
2019-06-01T11:13:41.051Z,4.67
2019-06-01T11:16:10.803Z,5.47
2019-06-01T11:18:41.762Z,5.20
2019-06-01T11:21:11.514Z,5.00
2019-06-01T11:23:43.772Z,4.80
2019-06-01T11:26:12.069Z,3.55
2019-06-01T11:28:42.238Z,4.42
2019-06-01T11:31:11.751Z,4.92
2019-06-01T11:33:42.039Z,5.28
2019-06-01T11:36:11.895Z,6.83
2019-06-01T11:38:42.455Z,5.83
2019-06-01T11:41:11.988Z,3.33
2019-06-01T11:43:42.649Z,4.87
2019-06-01T11:46:12.493Z,4.28
2019-06-01T11:48:43.360Z,4.87
2019-06-01T11:51:12.888Z,4.17
2019-06-01T11:53:43.446Z,5.87
2019-06-01T11:56:13.172Z,3.27
2019-06-01T11:58:43.408Z,4.20
2019-06-01T12:01:13.187Z,6.25
2019-06-01T12:03:43.836Z,3.40
2019-06-01T12:06:13.605Z,3.75
2019-06-01T12:08:44.067Z,4.37
2019-06-01T12:11:13.786Z,4.17
2019-06-01T12:13:44.318Z,4.78
2019-06-01T12:16:14.254Z,4.15
2019-06-01T12:18:44.722Z,5.42
2019-06-01T12:21:14.377Z,4.58
2019-06-01T12:23:43.843Z,5.67
2019-06-01T12:26:13.279Z,3.58
2019-06-01T12:28:43.782Z,6.47
2019-06-01T12:31:13.792Z,3.90
2019-06-01T12:33:44.187Z,3.50
2019-06-01T12:36:13.895Z,3.67
2019-06-01T12:38:52.429Z,4.03
2019-06-01T12:41:23.292Z,4.85
2019-06-01T12:44:09.857Z,3.55
2019-06-01T12:46:39.840Z,3.72
2019-06-01T12:49:09.949Z,2.87
2019-06-01T12:51:40.549Z,3.33
2019-06-01T12:54:11.398Z,5.12
2019-06-01T12:56:41.049Z,3.95
2019-06-01T12:59:10.413Z,4.97
2019-06-01T13:01:40.941Z,7.35
2019-06-01T13:04:10.791Z,2.52
2019-06-01T13:06:40.734Z,2.72
2019-06-01T13:09:10.557Z,4.72
2019-06-01T13:11:41.199Z,10.00
2019-06-01T13:14:10.850Z,4.28
2019-06-01T13:16:43.998Z,5.03
2019-06-01T13:19:11.372Z,4.15
2019-06-01T13:21:41.343Z,6.80
2019-06-01T13:24:11.086Z,5.65
2019-06-01T13:26:41.757Z,3.90
2019-06-01T13:29:11.743Z,2.47
2019-06-01T13:31:42.041Z,4.72
2019-06-01T13:34:11.639Z,2.35
2019-06-01T13:36:42.398Z,2.12
2019-06-01T13:39:12.111Z,4.97
2019-06-01T13:41:42.884Z,4.72
2019-06-01T13:44:12.806Z,4.65
2019-06-01T13:46:43.379Z,5.37
2019-06-01T13:49:13.010Z,2.50
2019-06-01T13:51:43.874Z,3.27
2019-06-01T13:54:13.812Z,2.75
2019-06-01T13:56:44.640Z,4.70
2019-06-01T13:59:14.248Z,4.15
2019-06-01T14:01:45.147Z,3.02
2019-06-01T14:04:14.605Z,5.30
2019-06-01T14:06:45.141Z,5.05
2019-06-01T14:09:14.879Z,2.37
2019-06-01T14:11:45.287Z,3.85
2019-06-01T14:14:14.911Z,3.83
2019-06-01T14:16:45.473Z,2.15
2019-06-01T14:19:15.087Z,3.62
2019-06-01T14:21:45.696Z,3.42
2019-06-01T14:24:15.495Z,4.50
2019-06-01T14:26:46.040Z,2.35
2019-06-01T14:29:15.596Z,3.98
2019-06-01T14:31:46.459Z,3.20
2019-06-01T14:34:16.081Z,3.67
2019-06-01T14:36:46.423Z,5.80
2019-06-01T14:39:16.190Z,2.42
2019-06-01T14:41:46.609Z,5.00
2019-06-01T14:44:16.452Z,2.35
2019-06-01T14:46:55.075Z,4.45
2019-06-01T14:49:16.965Z,4.12
2019-06-01T14:51:47.515Z,4.40
2019-06-01T14:54:18.339Z,2.65
2019-06-01T14:56:47.783Z,3.83
2019-06-01T14:59:17.325Z,3.70
2019-06-01T15:01:48.055Z,2.42
2019-06-01T15:04:17.839Z,1.75
2019-06-01T15:06:48.172Z,4.10
2019-06-01T15:09:19.697Z,2.70
2019-06-01T15:11:49.355Z,2.90
2019-06-01T15:14:20.355Z,4.03
2019-06-01T15:16:49.832Z,3.83
2019-06-01T15:19:19.275Z,3.15
2019-06-01T15:21:49.899Z,5.90
2019-06-01T15:24:19.600Z,3.70
2019-06-01T15:26:50.335Z,4.03
2019-06-01T15:29:19.999Z,1.98
2019-06-01T15:31:51.133Z,2.95
2019-06-01T15:34:20.743Z,5.60
2019-06-01T15:36:51.449Z,5.03
2019-06-01T15:39:24.564Z,3.47
2019-06-01T15:41:53.077Z,1.77
2019-06-01T15:44:22.583Z,5.75
2019-06-01T15:46:53.513Z,2.77
2019-06-01T15:49:23.063Z,2.25
2019-06-01T15:51:53.576Z,4.60
2019-06-01T15:54:23.160Z,4.22
2019-06-01T15:56:52.616Z,4.17
2019-06-01T15:59:22.050Z,3.47
2019-06-01T16:01:52.883Z,2.37
2019-06-01T16:04:22.666Z,2.17
2019-06-01T16:06:53.065Z,1.95
2019-06-01T16:09:22.658Z,2.60
2019-06-01T16:11:53.360Z,4.33
2019-06-01T16:14:22.935Z,4.17
2019-06-01T16:16:53.725Z,3.52
2019-06-01T16:19:23.563Z,7.03
2019-06-01T16:21:53.718Z,2.37
2019-06-01T16:24:23.371Z,3.42
2019-06-01T16:26:53.972Z,3.67
2019-06-01T16:29:23.867Z,4.03
2019-06-01T16:31:54.518Z,3.33
2019-06-01T16:34:24.263Z,4.70
2019-06-01T16:36:54.806Z,4.00
2019-06-01T16:39:24.403Z,3.85
2019-06-01T16:41:55.427Z,2.47
2019-06-01T16:44:25.223Z,1.92
2019-06-01T16:46:55.554Z,4.22
2019-06-01T16:49:27.293Z,3.50
2019-06-01T16:52:01.137Z,3.42
2019-06-01T16:54:30.756Z,5.12
2019-06-01T16:57:00.190Z,5.70
2019-06-01T16:59:29.639Z,4.08
2019-06-01T17:01:59.144Z,5.35
2019-06-01T17:04:28.611Z,4.95
2019-06-01T17:06:58.661Z,5.08
2019-06-01T17:09:28.371Z,3.92
2019-06-01T17:11:58.767Z,5.17
2019-06-01T17:14:28.423Z,2.83
2019-06-01T17:16:58.932Z,5.00
2019-06-01T17:19:28.681Z,4.05
2019-06-01T17:21:59.301Z,3.35
2019-06-01T17:24:29.059Z,2.87
2019-06-01T17:26:59.724Z,2.72
2019-06-01T17:29:29.550Z,4.05
2019-06-01T17:32:14.338Z,4.05
2019-06-01T17:34:30.142Z,5.80
2019-06-01T17:37:00.868Z,2.70
2019-06-01T17:39:30.317Z,4.05
2019-06-01T17:42:00.344Z,6.10
2019-06-01T17:44:30.562Z,3.45
2019-06-01T17:47:00.039Z,2.72
2019-06-01T17:49:29.458Z,2.08
2019-06-01T17:51:58.899Z,2.52
2019-06-01T17:54:28.487Z,2.30
2019-06-01T17:56:58.111Z,2.83
2019-06-01T17:59:27.579Z,2.22
2019-06-01T18:01:57.135Z,2.37
2019-06-01T18:04:26.651Z,2.55
2019-06-01T18:06:56.194Z,2.33
2019-06-01T18:09:25.965Z,4.30
2019-06-01T18:11:55.555Z,4.45
2019-06-01T18:14:25.179Z,3.00
2019-06-01T18:16:54.675Z,2.10
2019-06-01T18:19:24.191Z,3.80
2019-06-01T18:21:53.640Z,2.25
2019-06-01T18:24:23.187Z,3.15
2019-06-01T18:26:52.691Z,3.37
2019-06-01T18:29:22.142Z,2.20
2019-06-01T18:31:52.301Z,4.47
2019-06-01T18:34:21.871Z,2.87
2019-06-01T18:36:51.396Z,2.00
2019-06-01T18:39:20.855Z,3.12
2019-06-01T18:41:50.322Z,2.75
2019-06-01T18:44:20.915Z,3.75
2019-06-01T18:46:50.447Z,3.08
2019-06-01T18:49:19.891Z,2.65
2019-06-01T18:51:49.619Z,3.77
2019-06-01T18:54:19.140Z,3.35
2019-06-01T18:56:48.594Z,2.02
2019-06-01T18:59:18.047Z,3.35
2019-06-01T19:01:47.483Z,3.30
2019-06-01T19:04:16.927Z,2.98
2019-06-01T19:06:46.652Z,4.25
2019-06-01T19:09:16.107Z,2.58
2019-06-01T19:11:45.495Z,3.30
2019-06-01T19:14:16.058Z,2.08
2019-06-01T19:16:45.618Z,2.87
2019-06-01T19:19:15.098Z,5.70
2019-06-01T19:21:44.535Z,3.52
2019-06-01T19:24:14.698Z,5.40
2019-06-01T19:26:44.344Z,7.17
2019-06-01T19:29:14.901Z,4.15
2019-06-01T19:31:45.223Z,7.40
2019-06-01T19:34:15.123Z,6.35
2019-06-01T19:36:46.496Z,5.47
2019-06-01T19:39:17.330Z,7.37
2019-06-01T19:41:46.875Z,4.70
2019-06-01T19:44:17.861Z,6.60
2019-06-01T19:46:48.686Z,9.20
2019-06-01T19:49:19.005Z,8.23
2019-06-01T19:51:48.703Z,10.10
2019-06-01T19:54:19.023Z,4.97
2019-06-01T19:56:48.515Z,6.08
2019-06-01T19:59:18.113Z,5.30
2019-06-01T20:01:47.820Z,7.12
2019-06-01T20:04:18.621Z,4.25
2019-06-01T20:06:48.288Z,5.55
2019-06-01T20:09:17.730Z,7.47
2019-06-01T20:12:01.038Z,7.15
2019-06-01T20:14:19.240Z,7.50
2019-06-01T20:16:49.835Z,3.77
2019-06-01T20:19:19.838Z,5.40
2019-06-01T20:21:49.522Z,5.50
2019-06-01T20:24:19.381Z,7.20
2019-06-01T20:26:49.613Z,4.55
2019-06-01T20:29:19.836Z,5.92
2019-06-01T20:31:49.661Z,4.15
2019-06-01T20:34:20.046Z,6.95
2019-06-01T20:36:49.655Z,4.55
2019-06-01T20:39:20.060Z,4.83
2019-06-01T20:41:49.842Z,4.05
2019-06-01T20:44:19.423Z,4.05
2019-06-01T20:46:48.960Z,4.83
2019-06-01T20:49:18.623Z,5.03
2019-06-01T20:51:48.264Z,4.67
2019-06-01T20:54:18.955Z,6.87
2019-06-01T20:56:48.675Z,5.20
2019-06-01T20:59:20.232Z,11.03
2019-06-01T21:01:50.128Z,7.30
2019-06-01T21:04:22.196Z,6.47
2019-06-01T21:06:52.011Z,4.08
2019-06-01T21:09:22.016Z,10.85
2019-06-01T21:11:52.259Z,4.87
2019-06-01T21:14:21.711Z,3.83
2019-06-01T21:16:51.343Z,7.28
2019-06-01T21:19:20.941Z,3.95
2019-06-01T21:21:50.385Z,6.05
2019-06-01T21:24:21.119Z,3.77
2019-06-01T21:26:50.670Z,3.95
2019-06-01T21:29:20.860Z,5.47
2019-06-01T21:31:50.915Z,4.08
2019-06-01T21:34:22.202Z,5.35
2019-06-01T21:36:51.626Z,4.50
2019-06-01T21:39:21.640Z,5.45
2019-06-01T21:41:51.775Z,7.17
2019-06-01T21:44:21.638Z,6.78
2019-06-01T21:46:51.650Z,8.78
2019-06-01T21:49:22.133Z,5.72
2019-06-01T21:51:53.079Z,9.10
2019-06-01T21:54:22.985Z,4.60
2019-06-01T21:56:53.691Z,5.70
2019-06-01T21:59:23.127Z,6.95
2019-06-01T22:01:52.735Z,4.70
2019-06-01T22:04:23.053Z,5.67
2019-06-01T22:06:53.817Z,4.70
2019-06-01T22:09:23.468Z,8.15
2019-06-01T22:11:53.276Z,4.33
2019-06-01T22:14:23.560Z,6.53
2019-06-01T22:16:53.006Z,6.92
2019-06-01T22:19:23.750Z,8.45
2019-06-01T22:21:53.503Z,8.75
2019-06-01T22:24:23.868Z,5.25
2019-06-01T22:26:53.612Z,7.95
2019-06-01T22:29:24.316Z,5.85
2019-06-01T22:31:54.055Z,6.60
2019-06-01T22:34:24.783Z,5.67
2019-06-01T22:36:54.509Z,7.37
2019-06-01T22:39:24.791Z,7.40
2019-06-01T22:41:54.303Z,5.05
2019-06-01T22:44:24.113Z,7.60
2019-06-01T22:46:53.802Z,6.87
2019-06-01T22:49:24.630Z,8.30
2019-06-01T22:51:55.354Z,6.50
2019-06-01T22:54:25.109Z,10.78
2019-06-01T22:56:55.801Z,5.67
2019-06-01T22:59:26.565Z,9.38
2019-06-01T23:01:57.179Z,6.12
2019-06-01T23:04:27.199Z,6.92
2019-06-01T23:06:56.859Z,5.83
2019-06-01T23:09:27.373Z,8.60
2019-06-01T23:11:56.988Z,7.58
2019-06-01T23:14:27.379Z,6.97
2019-06-01T23:16:57.073Z,8.05
2019-06-01T23:19:27.912Z,8.75
2019-06-01T23:21:57.737Z,6.10
2019-06-01T23:24:28.215Z,7.95
2019-06-01T23:26:57.650Z,7.10
2019-06-01T23:29:28.080Z,8.10
2019-06-01T23:31:57.751Z,4.67
2019-06-01T23:34:28.551Z,12.50
2019-06-01T23:36:58.292Z,7.87
2019-06-01T23:39:28.756Z,6.60
2019-06-01T23:41:58.450Z,7.05
2019-06-01T23:44:30.716Z,6.35
2019-06-01T23:46:58.947Z,5.97
2019-06-01T23:49:29.247Z,10.08
2019-06-01T23:51:58.932Z,6.87
2019-06-01T23:54:29.443Z,7.78
2019-06-01T23:56:59.091Z,9.90
2019-06-01T23:59:29.603Z,9.15
